createdAt,value
2018-09-15T00:00:41.137Z,15.90
2018-09-15T00:03:09.340Z,15.90
2018-09-15T00:05:37.694Z,15.90
2018-09-15T00:08:05.952Z,15.80
2018-09-15T00:10:34.199Z,15.80
2018-09-15T00:13:02.427Z,15.70
2018-09-15T00:15:30.672Z,15.70
2018-09-15T00:18:00.418Z,15.70
2018-09-15T00:20:28.634Z,15.70
2018-09-15T00:22:56.887Z,15.60
2018-09-15T00:25:25.163Z,15.60
2018-09-15T00:27:53.399Z,15.50
2018-09-15T00:30:21.619Z,15.50
2018-09-15T00:32:49.868Z,15.50
2018-09-15T00:35:18.255Z,15.40
2018-09-15T00:37:46.508Z,15.40
2018-09-15T00:40:14.712Z,15.30
2018-09-15T00:42:42.907Z,15.30
2018-09-15T00:45:11.230Z,15.30
2018-09-15T00:47:39.446Z,15.20
2018-09-15T00:50:08.486Z,15.20
2018-09-15T00:52:37.466Z,15.20
2018-09-15T00:55:05.727Z,15.20
2018-09-15T00:57:33.950Z,15.10
2018-09-15T01:00:02.197Z,15.10
2018-09-15T01:02:30.411Z,15.10
2018-09-15T01:04:58.847Z,15.10
2018-09-15T01:07:27.115Z,15.10
2018-09-15T01:09:55.357Z,15.00
2018-09-15T01:12:23.591Z,15.00
2018-09-15T01:14:51.911Z,15.00
2018-09-15T01:17:20.203Z,14.90
2018-09-15T01:19:48.418Z,14.90
2018-09-15T01:22:17.013Z,14.80
2018-09-15T01:24:45.486Z,14.80
2018-09-15T01:27:13.738Z,14.80
2018-09-15T01:29:41.965Z,14.70
2018-09-15T01:32:10.198Z,14.70
2018-09-15T01:34:38.527Z,14.70
2018-09-15T01:37:06.780Z,14.60
2018-09-15T01:39:35.003Z,14.60
2018-09-15T01:42:03.279Z,14.60
2018-09-15T01:44:31.496Z,14.60
2018-09-15T01:46:59.744Z,14.60
2018-09-15T01:49:27.958Z,14.60
2018-09-15T01:51:56.223Z,14.60
2018-09-15T01:54:24.472Z,14.60
2018-09-15T01:56:52.714Z,14.60
2018-09-15T01:59:20.962Z,14.60
2018-09-15T02:01:49.210Z,14.60
2018-09-15T02:04:17.462Z,14.60
2018-09-15T02:06:45.675Z,14.60
2018-09-15T02:09:14.720Z,14.60
2018-09-15T02:11:43.721Z,14.60
2018-09-15T02:14:11.950Z,14.70
2018-09-15T02:16:40.240Z,14.70
2018-09-15T02:19:08.477Z,14.70
2018-09-15T02:21:36.693Z,14.70
2018-09-15T02:24:04.934Z,14.70
2018-09-15T02:26:33.212Z,14.70
2018-09-15T02:29:01.437Z,14.70
2018-09-15T02:31:29.646Z,14.70
2018-09-15T02:33:58.026Z,14.70
2018-09-15T02:36:26.303Z,14.80
2018-09-15T02:38:54.555Z,14.80
2018-09-15T02:41:22.791Z,14.80
2018-09-15T02:43:51.033Z,14.80
2018-09-15T02:46:19.250Z,14.90
2018-09-15T02:48:47.818Z,14.90
2018-09-15T02:51:16.047Z,14.90
2018-09-15T02:53:44.292Z,14.90
2018-09-15T02:56:12.491Z,14.90
2018-09-15T02:58:40.730Z,14.90
2018-09-15T03:01:08.993Z,14.90
2018-09-15T03:03:37.366Z,14.90
2018-09-15T03:06:05.580Z,14.90
2018-09-15T03:08:34.829Z,14.90
2018-09-15T03:11:03.098Z,14.90
2018-09-15T03:13:31.389Z,14.90
2018-09-15T03:15:59.699Z,14.90
2018-09-15T03:18:27.936Z,14.90
2018-09-15T03:20:56.184Z,14.90
2018-09-15T03:23:24.426Z,14.80
2018-09-15T03:25:52.676Z,14.80
2018-09-15T03:28:20.890Z,14.80
2018-09-15T03:30:49.127Z,14.80
2018-09-15T03:33:17.388Z,14.80
2018-09-15T03:35:45.594Z,14.80
2018-09-15T03:38:13.850Z,14.80
2018-09-15T03:40:42.262Z,14.80
2018-09-15T03:43:10.512Z,14.80
2018-09-15T03:45:38.767Z,14.80
2018-09-15T03:48:07.151Z,14.80
2018-09-15T03:50:35.407Z,14.80
2018-09-15T03:53:03.644Z,14.70
2018-09-15T03:55:32.032Z,14.70
2018-09-15T03:58:00.239Z,14.60
2018-09-15T04:00:28.467Z,14.60
2018-09-15T04:02:56.700Z,14.50
2018-09-15T04:05:24.924Z,14.50
2018-09-15T04:07:53.156Z,14.40
2018-09-15T04:10:21.416Z,14.40
2018-09-15T04:12:49.634Z,14.40
2018-09-15T04:15:17.882Z,14.30
2018-09-15T04:17:46.155Z,14.30
2018-09-15T04:20:14.432Z,14.30
2018-09-15T04:22:42.685Z,14.30
2018-09-15T04:25:11.218Z,14.30
2018-09-15T04:27:39.515Z,14.30
2018-09-15T04:30:07.738Z,14.40
2018-09-15T04:32:35.972Z,14.40
2018-09-15T04:35:04.426Z,14.40
2018-09-15T04:37:32.711Z,14.50
2018-09-15T04:40:00.924Z,14.50
2018-09-15T04:42:29.152Z,14.50
2018-09-15T04:44:57.411Z,14.60
2018-09-15T04:47:25.643Z,14.60
2018-09-15T04:49:53.931Z,14.60
2018-09-15T04:52:22.348Z,14.60
2018-09-15T04:54:50.642Z,14.70
2018-09-15T04:57:18.890Z,14.70
2018-09-15T04:59:47.131Z,14.70
2018-09-15T05:02:15.377Z,14.60
2018-09-15T05:04:43.648Z,14.60
2018-09-15T05:07:11.879Z,14.60
2018-09-15T05:09:40.125Z,14.60
2018-09-15T05:12:08.373Z,14.60
2018-09-15T05:14:36.571Z,14.60
2018-09-15T05:17:04.884Z,14.60
2018-09-15T05:19:33.179Z,14.60
2018-09-15T05:22:01.398Z,14.60
2018-09-15T05:24:29.763Z,14.60
2018-09-15T05:26:58.033Z,14.70
2018-09-15T05:29:26.319Z,14.70
2018-09-15T05:31:54.597Z,14.80
2018-09-15T05:34:22.870Z,14.80
2018-09-15T05:36:51.131Z,14.80
2018-09-15T05:39:19.372Z,14.80
2018-09-15T05:41:47.611Z,14.80
2018-09-15T05:44:15.864Z,14.90
2018-09-15T05:46:44.151Z,14.90
2018-09-15T05:49:12.380Z,14.90
2018-09-15T05:51:40.636Z,14.90
2018-09-15T05:54:08.914Z,14.90
2018-09-15T05:56:37.377Z,14.80
2018-09-15T05:59:06.056Z,14.80
2018-09-15T06:01:34.355Z,14.80
2018-09-15T06:04:02.601Z,14.80
2018-09-15T06:06:30.824Z,14.80
2018-09-15T06:08:59.072Z,14.80
2018-09-15T06:11:27.319Z,14.80
2018-09-15T06:13:55.648Z,14.80
2018-09-15T06:16:23.896Z,14.80
2018-09-15T06:18:52.131Z,14.80
2018-09-15T06:21:20.368Z,14.90
2018-09-15T06:23:48.771Z,15.00
2018-09-15T06:26:17.123Z,15.00
2018-09-15T06:28:45.366Z,15.10
2018-09-15T06:31:13.608Z,15.10
2018-09-15T06:33:41.919Z,15.20
2018-09-15T06:36:10.145Z,15.30
2018-09-15T06:38:38.390Z,15.30
2018-09-15T06:41:06.614Z,15.40
2018-09-15T06:43:34.906Z,15.50
2018-09-15T06:46:03.161Z,15.60
2018-09-15T06:48:31.519Z,15.60
2018-09-15T06:50:59.767Z,15.60
2018-09-15T06:53:28.189Z,15.70
2018-09-15T06:55:56.432Z,15.70
2018-09-15T06:58:24.650Z,15.60
2018-09-15T07:00:52.946Z,15.60
2018-09-15T07:03:21.132Z,15.60
2018-09-15T07:05:49.339Z,15.60
2018-09-15T07:08:17.591Z,15.60
2018-09-15T07:10:45.818Z,15.70
2018-09-15T07:13:14.049Z,15.80
2018-09-15T07:15:42.639Z,15.90
2018-09-15T07:18:11.969Z,15.90
2018-09-15T07:20:40.223Z,16.00
2018-09-15T07:23:08.472Z,16.00
2018-09-15T07:25:36.716Z,16.10
2018-09-15T07:28:05.356Z,16.20
2018-09-15T07:30:33.735Z,16.20
2018-09-15T07:33:02.034Z,16.20
2018-09-15T07:35:30.339Z,16.20
2018-09-15T07:37:58.585Z,16.20
2018-09-15T07:40:26.834Z,16.30
2018-09-15T07:42:55.051Z,16.30
2018-09-15T07:45:23.419Z,16.30
2018-09-15T07:47:51.655Z,16.20
2018-09-15T07:50:19.994Z,16.20
2018-09-15T07:52:48.340Z,16.20
2018-09-15T07:55:17.021Z,16.30
2018-09-15T07:57:45.365Z,16.30
2018-09-15T08:00:13.486Z,16.40
2018-09-15T08:09:12.535Z,16.30
2018-09-15T08:11:40.738Z,16.20
2018-09-15T08:14:09.146Z,16.30
2018-09-15T08:16:38.205Z,16.50
2018-09-15T08:19:06.431Z,16.70
2018-09-15T08:21:34.688Z,17.00
2018-09-15T08:24:02.904Z,17.20
2018-09-15T08:26:31.208Z,17.30
2018-09-15T08:28:59.379Z,17.30
2018-09-15T08:31:27.604Z,17.40
2018-09-15T08:33:55.883Z,17.50
2018-09-15T08:36:24.085Z,17.80
2018-09-15T08:38:52.343Z,17.90
2018-09-15T08:41:20.596Z,18.00
2018-09-15T08:43:49.180Z,18.20
2018-09-15T08:46:17.402Z,18.50
2018-09-15T08:48:45.821Z,18.70
2018-09-15T08:51:14.039Z,18.80
2018-09-15T08:53:42.267Z,18.80
2018-09-15T08:56:10.604Z,19.00
2018-09-15T08:58:38.805Z,19.30
2018-09-15T09:01:07.015Z,19.30
2018-09-15T09:03:35.484Z,19.40
2018-09-15T09:06:03.696Z,19.60
2018-09-15T09:08:31.915Z,19.60
2018-09-15T09:11:00.192Z,19.60
2018-09-15T09:13:28.543Z,19.50
2018-09-15T09:15:57.297Z,19.60
2018-09-15T09:18:25.550Z,19.70
2018-09-15T09:20:53.767Z,19.70
2018-09-15T09:23:21.998Z,19.70
2018-09-15T09:25:50.268Z,19.70
2018-09-15T09:28:18.452Z,19.90
2018-09-15T09:30:46.704Z,20.20
2018-09-15T09:33:15.323Z,20.30
2018-09-15T09:35:43.520Z,20.40
2018-09-15T09:48:07.912Z,18.70
2018-09-15T09:50:36.063Z,18.40
2018-09-15T09:53:04.246Z,18.30
2018-09-15T09:55:33.309Z,18.40
2018-09-15T09:58:02.253Z,18.60
2018-09-15T10:00:35.927Z,18.70
2018-09-15T10:03:04.219Z,18.90
2018-09-15T10:05:32.460Z,19.00
2018-09-15T10:08:00.690Z,19.10
2018-09-15T10:10:28.920Z,19.20
2018-09-15T10:12:57.194Z,19.30
2018-09-15T10:15:25.579Z,19.40
2018-09-15T10:17:53.790Z,19.50
2018-09-15T10:20:22.190Z,19.60
2018-09-15T10:22:50.658Z,19.70
2018-09-15T10:25:18.864Z,19.70
2018-09-15T10:27:47.177Z,19.70
2018-09-15T10:30:15.426Z,19.60
2018-09-15T10:32:43.686Z,19.70
2018-09-15T10:35:11.931Z,19.70
2018-09-15T10:37:40.295Z,19.60
2018-09-15T10:40:08.651Z,19.50
2018-09-15T10:42:36.894Z,19.40
2018-09-15T10:45:05.309Z,19.30
2018-09-15T10:47:33.690Z,19.30
2018-09-15T10:50:02.004Z,19.40
2018-09-15T10:52:30.241Z,19.60
2018-09-15T10:54:58.523Z,19.90
2018-09-15T10:57:26.961Z,20.00
2018-09-15T10:59:55.158Z,20.00
2018-09-15T11:02:23.385Z,20.10
2018-09-15T11:04:51.687Z,20.10
2018-09-15T11:07:19.974Z,20.00
2018-09-15T11:09:48.230Z,20.20
2018-09-15T11:12:16.513Z,20.20
2018-09-15T11:14:44.990Z,20.30
2018-09-15T11:17:13.371Z,20.30
2018-09-15T11:19:41.623Z,20.30
2018-09-15T11:22:09.955Z,20.40
2018-09-15T11:24:38.355Z,20.60
2018-09-15T11:27:06.621Z,20.70
2018-09-15T11:29:34.923Z,20.80
2018-09-15T11:32:03.507Z,20.70
2018-09-15T11:34:31.834Z,20.80
2018-09-15T11:37:00.031Z,20.80
2018-09-15T11:39:28.280Z,20.80
2018-09-15T11:41:56.514Z,20.80
2018-09-15T11:44:24.928Z,20.80
2018-09-15T11:46:53.216Z,20.90
2018-09-15T11:49:21.523Z,20.90
2018-09-15T11:51:49.781Z,20.90
2018-09-15T11:54:18.087Z,20.80
2018-09-15T11:56:46.442Z,20.70
2018-09-15T11:59:14.690Z,20.70
2018-09-15T12:01:42.894Z,20.70
2018-09-15T12:04:11.270Z,20.90
2018-09-15T12:06:39.768Z,21.20
2018-09-15T12:09:09.138Z,21.50
2018-09-15T12:11:37.412Z,21.70
2018-09-15T12:14:05.858Z,21.70
2018-09-15T12:16:34.084Z,21.60
2018-09-15T12:19:02.355Z,21.50
2018-09-15T12:21:30.638Z,21.40
2018-09-15T12:23:58.838Z,21.40
2018-09-15T12:26:27.136Z,21.40
2018-09-15T12:28:55.377Z,21.50
2018-09-15T12:31:23.662Z,21.40
2018-09-15T12:33:51.969Z,21.40
2018-09-15T12:36:20.222Z,21.30
2018-09-15T12:38:48.546Z,21.40
2018-09-15T12:41:16.767Z,21.60
2018-09-15T12:43:45.122Z,21.90
2018-09-15T12:46:14.271Z,22.20
2018-09-15T12:48:42.530Z,22.50
2018-09-15T12:51:10.853Z,23.00
2018-09-15T12:53:39.092Z,23.30
2018-09-15T12:56:07.327Z,23.40
2018-09-15T12:58:35.734Z,23.40
2018-09-15T13:01:10.690Z,23.20
2018-09-15T13:03:39.024Z,23.10
2018-09-15T13:06:07.592Z,23.00
2018-09-15T13:08:35.811Z,23.00
2018-09-15T13:11:04.124Z,23.20
2018-09-15T13:13:32.455Z,23.40
2018-09-15T13:16:00.766Z,23.70
2018-09-15T13:18:29.127Z,23.60
2018-09-15T13:20:57.402Z,23.60
2018-09-15T13:23:25.656Z,23.40
2018-09-15T13:25:53.858Z,23.20
2018-09-15T13:28:22.107Z,22.90
2018-09-15T13:30:50.543Z,22.80
2018-09-15T13:33:18.835Z,22.80
2018-09-15T13:35:47.036Z,22.80
2018-09-15T13:38:15.258Z,22.80
2018-09-15T13:40:43.511Z,22.80
2018-09-15T13:43:11.725Z,22.70
2018-09-15T13:45:39.966Z,22.60
2018-09-15T13:48:08.179Z,22.60
2018-09-15T13:50:36.456Z,22.50
2018-09-15T13:53:04.769Z,22.40
2018-09-15T13:55:32.974Z,22.30
2018-09-15T13:58:01.277Z,22.20
2018-09-15T14:00:29.617Z,22.00
2018-09-15T14:02:57.849Z,21.80
2018-09-15T14:05:26.074Z,21.70
2018-09-15T14:07:54.322Z,21.70
2018-09-15T14:10:22.563Z,21.80
2018-09-15T14:12:50.966Z,21.90
2018-09-15T14:15:19.223Z,22.20
2018-09-15T14:17:47.475Z,22.60
2018-09-15T14:20:15.724Z,23.40
2018-09-15T14:22:43.966Z,24.10
2018-09-15T14:25:12.275Z,24.50
2018-09-15T14:27:40.516Z,24.60
2018-09-15T14:30:08.755Z,24.90
2018-09-15T14:32:37.007Z,25.00
2018-09-15T14:35:05.683Z,25.80
2018-09-15T14:37:33.963Z,28.70
2018-09-15T14:40:02.216Z,30.30
2018-09-15T14:42:30.511Z,32.40
2018-09-15T14:44:58.706Z,32.30
2018-09-15T14:47:26.907Z,33.30
2018-09-15T14:49:55.191Z,33.80
2018-09-15T14:52:23.407Z,32.00
2018-09-15T14:54:51.886Z,30.10
2018-09-15T14:57:20.121Z,28.50
2018-09-15T14:59:48.395Z,27.20
2018-09-15T15:02:16.668Z,26.30
2018-09-15T15:04:44.899Z,25.50
2018-09-15T15:07:13.195Z,24.80
2018-09-15T15:09:41.427Z,24.30
2018-09-15T15:12:09.774Z,24.00
2018-09-15T15:14:38.078Z,24.10
2018-09-15T15:17:06.293Z,24.00
2018-09-15T15:19:34.539Z,23.70
2018-09-15T15:22:02.813Z,23.30
2018-09-15T15:24:31.163Z,23.10
2018-09-15T15:26:59.500Z,22.90
2018-09-15T15:29:27.751Z,22.70
2018-09-15T15:31:55.978Z,22.50
2018-09-15T15:34:24.247Z,22.40
2018-09-15T15:36:52.475Z,22.30
2018-09-15T15:39:20.778Z,22.20
2018-09-15T15:41:49.052Z,22.00
2018-09-15T15:44:17.361Z,21.80
2018-09-15T15:46:45.615Z,21.80
2018-09-15T15:49:13.839Z,21.70
2018-09-15T15:51:42.114Z,21.70
2018-09-15T15:54:10.489Z,21.60
2018-09-15T15:56:38.759Z,21.60
2018-09-15T15:59:07.139Z,21.50
2018-09-15T16:01:35.498Z,21.40
2018-09-15T16:04:03.731Z,21.40
2018-09-15T16:06:31.990Z,21.30
2018-09-15T16:09:00.208Z,21.30
2018-09-15T16:11:28.470Z,21.20
2018-09-15T16:13:56.683Z,21.20
2018-09-15T16:16:24.935Z,21.20
2018-09-15T16:18:53.192Z,21.20
2018-09-15T16:21:21.470Z,21.20
2018-09-15T16:23:49.793Z,21.20
2018-09-15T16:26:18.014Z,21.30
2018-09-15T16:28:46.248Z,21.50
2018-09-15T16:31:14.521Z,21.60
2018-09-15T16:33:42.742Z,21.60
2018-09-15T16:36:10.971Z,21.60
2018-09-15T16:38:39.243Z,21.60
2018-09-15T16:41:09.603Z,21.60
2018-09-15T16:43:41.048Z,21.60
2018-09-15T16:46:10.504Z,21.70
2018-09-15T16:48:38.784Z,21.70
2018-09-15T16:51:07.196Z,22.10
2018-09-15T16:53:35.554Z,22.80
2018-09-15T16:56:03.835Z,23.40
2018-09-15T16:58:32.071Z,23.60
2018-09-15T17:01:00.269Z,23.40
2018-09-15T17:03:28.576Z,23.10
2018-09-15T17:05:56.746Z,22.80
2018-09-15T17:08:24.954Z,22.40
2018-09-15T17:10:53.177Z,22.00
2018-09-15T17:13:21.547Z,21.70
2018-09-15T17:15:49.758Z,21.50
2018-09-15T17:18:18.094Z,21.30
2018-09-15T17:20:46.524Z,21.10
2018-09-15T17:23:14.751Z,20.90
2018-09-15T17:25:43.055Z,20.80
2018-09-15T17:28:11.499Z,20.60
2018-09-15T17:30:39.731Z,20.50
2018-09-15T17:33:08.047Z,20.50
2018-09-15T17:35:36.438Z,20.40
2018-09-15T17:38:04.764Z,20.30
2018-09-15T17:40:33.132Z,20.20
2018-09-15T17:43:01.352Z,20.10
2018-09-15T17:45:29.805Z,20.00
2018-09-15T17:47:58.167Z,19.90
2018-09-15T17:50:26.502Z,19.80
2018-09-15T17:52:54.856Z,19.70
2018-09-15T17:55:23.279Z,19.60
2018-09-15T17:57:51.500Z,19.50
2018-09-15T18:00:19.732Z,19.50
2018-09-15T18:02:48.062Z,19.40
2018-09-15T18:05:16.727Z,19.30
2018-09-15T18:07:45.044Z,19.20
2018-09-15T18:10:13.347Z,19.10
2018-09-15T18:12:41.743Z,19.10
2018-09-15T18:15:10.321Z,19.10
2018-09-15T18:17:38.635Z,19.00
2018-09-15T18:20:07.089Z,19.00
2018-09-15T18:22:35.356Z,18.90
2018-09-15T18:25:03.624Z,18.90
2018-09-15T18:27:31.887Z,18.90
2018-09-15T18:30:00.242Z,18.80
2018-09-15T18:32:28.644Z,18.80
2018-09-15T18:34:57.170Z,18.80
2018-09-15T18:37:26.344Z,18.70
2018-09-15T18:39:55.015Z,18.70
2018-09-15T18:42:23.252Z,18.60
2018-09-15T18:44:52.286Z,18.60
2018-09-15T18:47:20.514Z,18.50
2018-09-15T18:49:49.040Z,18.50
2018-09-15T18:52:18.840Z,18.40
2018-09-15T18:54:47.105Z,18.40
2018-09-15T18:57:16.943Z,18.40
2018-09-15T18:59:45.225Z,18.30
2018-09-15T19:02:13.479Z,18.30
2018-09-15T19:04:41.797Z,18.30
2018-09-15T19:07:10.028Z,18.20
2018-09-15T19:09:38.279Z,18.20
2018-09-15T19:12:06.781Z,18.20
2018-09-15T19:14:41.810Z,18.10
2018-09-15T19:17:10.012Z,18.10
2018-09-15T19:19:38.322Z,18.10
2018-09-15T19:22:06.600Z,18.10
2018-09-15T19:24:34.854Z,18.10
2018-09-15T19:27:03.309Z,18.00
2018-09-15T19:29:31.546Z,18.00
2018-09-15T19:31:59.881Z,18.00
2018-09-15T19:34:28.263Z,18.00
2018-09-15T19:36:56.687Z,18.00
2018-09-15T19:39:24.917Z,18.00
2018-09-15T19:41:53.305Z,18.00
2018-09-15T19:44:21.558Z,17.90
2018-09-15T19:46:49.847Z,17.90
2018-09-15T19:49:18.567Z,17.80
2018-09-15T19:51:46.830Z,17.80
2018-09-15T19:54:15.082Z,17.70
2018-09-15T19:56:43.607Z,17.70
2018-09-15T19:59:11.974Z,17.60
2018-09-15T20:01:40.280Z,17.60
2018-09-15T20:04:09.753Z,17.50
2018-09-15T20:06:38.054Z,17.40
2018-09-15T20:09:07.966Z,17.40
2018-09-15T20:11:36.252Z,17.30
2018-09-15T20:14:04.543Z,17.20
2018-09-15T20:16:31.798Z,17.10
2018-09-15T20:18:59.085Z,17.10
2018-09-15T20:21:26.317Z,17.10
2018-09-15T20:23:54.671Z,17.10
2018-09-15T20:26:24.093Z,17.10
2018-09-15T20:28:52.793Z,17.00
2018-09-15T20:31:21.043Z,17.00
2018-09-15T20:33:49.502Z,17.00
2018-09-15T20:36:17.782Z,16.90
2018-09-15T20:38:46.052Z,16.90
2018-09-15T20:41:14.279Z,16.90
2018-09-15T20:43:42.535Z,16.90
2018-09-15T20:46:10.786Z,16.90
2018-09-15T20:48:39.063Z,16.90
2018-09-15T20:51:07.375Z,16.90
2018-09-15T20:53:35.624Z,16.80
2018-09-15T20:56:03.925Z,16.80
2018-09-15T21:01:06.787Z,16.80
2018-09-15T21:03:35.198Z,16.70
2018-09-15T21:06:03.943Z,16.70
2018-09-15T21:08:32.232Z,16.70
2018-09-15T21:11:00.495Z,16.60
2018-09-15T21:13:28.839Z,16.60
2018-09-15T21:15:57.239Z,16.60
2018-09-15T21:18:25.443Z,16.60
2018-09-15T21:20:53.759Z,16.60
2018-09-15T21:23:22.097Z,16.50
2018-09-15T21:25:50.396Z,16.50
2018-09-15T21:28:18.639Z,16.50
2018-09-15T21:30:46.888Z,16.50
2018-09-15T21:33:15.154Z,16.40
2018-09-15T21:35:43.427Z,16.40
2018-09-15T21:38:11.665Z,16.40
2018-09-15T21:40:39.948Z,16.40
2018-09-15T21:43:08.252Z,16.30
2018-09-15T21:45:36.471Z,16.30
2018-09-15T21:48:04.748Z,16.30
2018-09-15T21:50:32.992Z,16.30
2018-09-15T21:53:01.212Z,16.30
2018-09-15T21:55:29.572Z,16.20
2018-09-15T21:57:57.829Z,16.20
2018-09-15T22:00:26.099Z,16.20
2018-09-15T22:02:54.311Z,16.10
2018-09-15T22:05:22.606Z,16.10
2018-09-15T22:07:50.875Z,16.10
2018-09-15T22:10:19.119Z,16.10
2018-09-15T22:12:47.367Z,16.10
2018-09-15T22:15:21.884Z,16.10
2018-09-15T22:17:50.220Z,16.10
2018-09-15T22:20:18.442Z,16.00
2018-09-15T22:22:46.840Z,16.00
2018-09-15T22:25:15.123Z,16.00
2018-09-15T22:27:43.344Z,16.00
2018-09-15T22:30:11.610Z,15.90
2018-09-15T22:32:39.863Z,15.90
2018-09-15T22:35:08.094Z,15.90
2018-09-15T22:37:36.318Z,15.80
2018-09-15T22:40:04.734Z,15.80
2018-09-15T22:42:32.985Z,15.70
2018-09-15T22:45:01.258Z,15.70
2018-09-15T22:47:29.634Z,15.70
2018-09-15T22:49:57.968Z,15.70
2018-09-15T22:52:26.244Z,15.60
2018-09-15T22:54:54.581Z,15.60
2018-09-15T22:57:22.775Z,15.60
2018-09-15T22:59:51.063Z,15.50
2018-09-15T23:02:19.310Z,15.50
2018-09-15T23:04:47.554Z,15.50
2018-09-15T23:07:18.758Z,15.40
2018-09-15T23:09:47.017Z,15.40
2018-09-15T23:12:15.304Z,15.30
2018-09-15T23:14:43.593Z,15.30
2018-09-15T23:17:11.855Z,15.30
2018-09-15T23:19:40.090Z,15.30
2018-09-15T23:22:08.420Z,15.30
2018-09-15T23:24:36.785Z,15.20
2018-09-15T23:27:05.067Z,15.20
2018-09-15T23:29:33.354Z,15.20
2018-09-15T23:32:01.675Z,15.10
2018-09-15T23:34:29.892Z,15.10
2018-09-15T23:36:58.138Z,15.10
2018-09-15T23:39:26.398Z,15.10
2018-09-15T23:41:55.515Z,15.00
2018-09-15T23:44:23.811Z,15.00
2018-09-15T23:46:52.051Z,15.00
2018-09-15T23:49:20.291Z,14.90
2018-09-15T23:51:48.509Z,14.90
2018-09-15T23:54:16.937Z,14.90
2018-09-15T23:56:45.211Z,14.90
2018-09-15T23:59:13.453Z,14.90
